Edward Cornwallis — CGJV — position and weather

sailwx.info

Track history (hours):
 
Tides and Currents Weather Stations Pressure Air Temp Water Temp Dewpoint Dewpoint Depression Visibility Wind Speed Wind Dir Waves Ship Positions

Edward Cornwallis

Last reported at 2018-Feb-23 06:00 UTC. Time now 2018-Feb-23 06:44 UTC.
Position N 46°12' W 060°12'.

Length 83 m; draft 6 m.

Type: SAR. MMSI: 316020000.

Wind from 310 at 6 knots

Barometer 1034.3 mb
Air temperature -7.9 ° C
Dewpoint -11.3 ° C

Date/timePositionNaut miles runAvg speedWind from/ knotsBaromVisibWave heightAir tempDewpointWater temp
2018-Feb-23 06:00N 46°12' W 060°12'0 0.0 310 / 61034.3 -7.9-11.3
2018-Feb-23 05:00N 46°12' W 060°12'0 0.0 320 / 41034.2 -8.0-11.6
2018-Feb-23 04:00N 46°12' W 060°12'0 0.0 290 / 31034.1 -8.7-13.2
2018-Feb-23 03:00N 46°12' W 060°12'0 0.0 310 / 51034.1 -8.6-13.5
2018-Feb-23 02:00N 46°12' W 060°12'0 0.0 270 / 51034.3 -8.0-12.5
2018-Feb-23 01:00N 46°12' W 060°12'0 0.0 290 / 61034.2 -8.1-12.8
2018-Feb-23 00:00N 46°12' W 060°12'0 0.0 300 / 141033.5 -8.3-12.9
2018-Feb-22 23:00N 46°12' W 060°12'0 0.0 280 / 91033.7 -8.2-13.3
2018-Feb-22 22:00N 46°12' W 060°12'0 0.0 280 / 61032.9 -7.7-13.5
2018-Feb-22 21:00N 46°12' W 060°12'0 0.0 310 / 61032.5 -7.0-13.4
2018-Feb-22 20:00N 46°12' W 060°12'0 0.0 330 / 101032.1 -6.6-13.4
2018-Feb-22 19:00N 46°12' W 060°12'0 0.0 310 / 111031.2 -5.8-13.8
2018-Feb-22 18:00N 46°12' W 060°12'0 0.0 330 / 91031.4 -5.4-13.6
2018-Feb-22 17:00N 46°12' W 060°12'0 0.0 350 / 81031.2 -6.2-13.5
2018-Feb-22 16:00N 46°12' W 060°12'0 0.0 350 / 101031.2 -6.2-12.4
2018-Feb-22 15:00N 46°12' W 060°12'0 0.0 340 / 101031.2 -6.9-13.0
2018-Feb-22 13:00N 46°12' W 060°12'0 0.0 340 / 101030.2 -6.9-12.3
2018-Feb-22 12:00N 46°12' W 060°12'0 0.0 340 / 111028.6 -6.4-12.3
2018-Feb-22 10:00N 46°12' W 060°12'0 0.0 310 / 161025.2 -3.6-11.0
2018-Feb-22 09:00N 46°12' W 060°12'0 0.0 310 / 91023.5 -2.4-10.1
2018-Feb-22 08:00N 46°12' W 060°12'0 0.0 310 / 131020.7 -0.9-8.0
2018-Feb-22 07:00N 46°12' W 060°12'0 0.0 320 / 111019.0 1.7-2.6
2018-Feb-22 06:00N 46°12' W 060°12'0 0.0 300 / 191016.7 3.3-2.3
2018-Feb-22 05:00N 46°12' W 060°12'0 0.0 300 / 181015.6 5.4-1.0
2018-Feb-22 03:00N 46°12' W 060°12'0 0.0 270 / 101012.3 9.5 7.2
2018-Feb-22 02:00N 46°12' W 060°12'0 0.0 280 / 61010.8 8.9 8.8
2018-Feb-22 01:00N 46°12' W 060°12'0 0.0 180 / 71010.1 5.2 5.1
2018-Feb-22 00:00N 46°12' W 060°12'0 0.0 180 / 81010.2 4.3 4.2
2018-Feb-21 23:00N 46°12' W 060°12'0 0.0 190 / 101010.8 4.5 4.4
2018-Feb-21 22:00N 46°12' W 060°12'0 0.0 200 / 91011.5 4.3 4.3
2018-Feb-21 21:00N 46°12' W 060°12'0 0.0 200 / 91012.3 3.7 3.7
2018-Feb-21 20:00N 46°12' W 060°12'0 0.0 200 / 121013.6 2.9 2.9
2018-Feb-21 19:00N 46°12' W 060°12'0 0.0 210 / 111015.2 2.4 2.3
2018-Feb-21 18:00N 46°12' W 060°12'0 0.0 200 / 171016.6 1.5 1.4
2018-Feb-21 17:00N 46°12' W 060°12'0 0.0 200 / 161018.9 0.6 0.5
2018-Feb-21 16:00N 46°12' W 060°12'0 0.0 190 / 171021.5 0.2-0.0
2018-Feb-21 15:00N 46°12' W 060°12'0 0.0 190 / 101023.2 -0.2-0.4
2018-Feb-21 14:00N 46°12' W 060°12'0 0.0 200 / 21025.5 -1.8-2.0
2018-Feb-21 13:00N 46°12' W 060°12'0 0.0 240 / 31025.9 -2.2-3.1
2018-Feb-21 12:00N 46°12' W 060°12'0 0.0 090 / 21026.8 -2.2-3.1
2018-Feb-21 11:00N 46°12' W 060°12'0 0.0 1027.4 -2.6-3.6
2018-Feb-21 10:00N 46°12' W 060°12'0 0.0 010 / 21028.6 -2.6-3.7
2018-Feb-21 09:00N 46°12' W 060°12'0 0.0 040 / 51029.8 -2.9-3.9
2018-Feb-21 08:00N 46°12' W 060°12'0 0.0 030 / 51029.5 -2.9-4.0
2018-Feb-21 07:00N 46°12' W 060°12'0 0.0 030 / 71030.0 -3.0-4.0
2018-Feb-21 06:00N 46°12' W 060°12'0 0.0 030 / 71030.3 -2.9-3.7
2018-Feb-21 05:00N 46°12' W 060°12'0 0.0 020 / 101030.5 -2.9-3.8
2018-Feb-21 04:00N 46°12' W 060°12'0 0.0 010 / 61030.9 -2.7-3.0
2018-Feb-21 03:00N 46°12' W 060°12'0 0.0 020 / 91031.0 -2.7-2.9
2018-Feb-21 02:00N 46°12' W 060°12'0 0.0 020 / 111030.5 -2.8-3.0
2018-Feb-21 01:00N 46°12' W 060°12'0 0.0 030 / 91031.2 -2.6-2.8
2018-Feb-21 00:00N 46°12' W 060°12'0 0.0 010 / 131030.9 -2.4-2.6
2018-Feb-20 23:00N 46°12' W 060°12'0 0.0 020 / 111030.3 -1.8-2.0
2018-Feb-20 22:00N 46°12' W 060°12'0 0.0 020 / 121029.7 -0.9-1.0
2018-Feb-20 21:00N 46°12' W 060°12'0 0.0 030 / 51028.4 -0.5-0.7
2018-Feb-20 20:00N 46°12' W 060°12'0 0.0 030 / 101028.2 -0.1-0.3
2018-Feb-20 19:00N 46°12' W 060°12'0 0.0 050 / 71027.0 0.4 0.2
2018-Feb-20 18:00N 46°12' W 060°12'0 0.0 040 / 101026.7 1.2 0.8
2018-Feb-20 17:00N 46°12' W 060°12'0 0.0 040 / 61026.2 3.4 2.8
2018-Feb-20 16:00N 46°12' W 060°12'0 0.0 250 / 11025.8 2.4 2.2
2018-Feb-20 15:00N 46°12' W 060°12'0 0.0 190 / 11026.2 2.0 1.8
2018-Feb-20 14:00N 46°12' W 060°12'0 0.0 230 / 21026.8 1.4 1.3
2018-Feb-20 13:00N 46°12' W 060°12'0 0.0 1026.7 1.4 1.2
2018-Feb-20 12:00N 46°12' W 060°12'0 0.0 180 / 31026.8 0.9 0.8
2018-Feb-20 11:00N 46°12' W 060°12'0 0.0 180 / 31026.8 0.3 0.2
2018-Feb-20 10:00N 46°12' W 060°12'0 0.0 190 / 11027.3 0.4 0.3
2018-Feb-20 09:00N 46°12' W 060°12'0 0.0 150 / 21027.6 0.1-0.0
2018-Feb-20 08:00N 46°12' W 060°12'0 0.0 150 / 21028.2 -0.9-1.0
2018-Feb-20 07:00N 46°12' W 060°12'0 0.0 160 / 51029.0 -1.4-1.5
2018-Feb-20 06:00N 46°12' W 060°12'0 0.0 180 / 91029.6 -0.3-1.9
2018-Feb-20 05:00N 46°12' W 060°12'0 0.0 200 / 51030.0 -0.3-2.1
2018-Feb-20 04:00N 46°12' W 060°12'0 0.0 210 / 61030.8 -0.9-2.6
2018-Feb-20 03:00N 46°12' W 060°12'0 0.0 190 / 91031.0 -1.9-3.1
2018-Feb-20 02:00N 46°12' W 060°12'0 0.0 190 / 111031.2 -1.8-3.0
2018-Feb-20 01:00N 46°12' W 060°12'0 0.0 200 / 131031.8 -1.4-2.9
2018-Feb-20 00:00N 46°12' W 060°12'0 0.0 210 / 141032.1 -1.0-3.3
2018-Feb-19 23:00N 46°12' W 060°12'0 0.0 200 / 141032.7 -0.8-4.6
2018-Feb-19 22:00N 46°12' W 060°12'0 0.0 190 / 151032.3 -0.2-6.0
2018-Feb-19 21:00N 46°12' W 060°12'0 0.0 200 / 141032.9 1.6-6.2
2018-Feb-19 20:00N 46°12' W 060°12'0 0.0 200 / 121033.6 2.1-8.2
2018-Feb-19 19:00N 46°12' W 060°12'0 0.0 200 / 91033.9 2.4-6.9
2018-Feb-19 18:00N 46°12' W 060°12'0 0.0 220 / 81034.5 1.7-8.1
2018-Feb-19 17:00N 46°12' W 060°12'0 0.0 230 / 81035.8 0.9-8.3
2018-Feb-19 16:00N 46°12' W 060°12'0 0.0 250 / 71036.3 0.5-7.9
2018-Feb-19 15:00N 46°12' W 060°12'0 0.0 180 / 51036.6 -1.4-5.6
2018-Feb-19 14:00N 46°12' W 060°12'0 0.0 190 / 41036.0 -2.9-5.7
2018-Feb-19 13:00N 46°12' W 060°12'0 0.0 200 / 41035.5 -5.2-6.9
2018-Feb-19 12:00N 46°12' W 060°12'0 0.0 200 / 31034.5 -6.1-7.0
2018-Feb-19 11:00N 46°12' W 060°12'0 0.0 280 / 41034.2 -6.8-7.3
2018-Feb-19 10:00N 46°12' W 060°12'0 0.0 270 / 41032.7 -6.7-7.6
2018-Feb-19 09:00N 46°12' W 060°12'0 0.0 240 / 31032.7 -7.3-7.8
2018-Feb-19 08:00N 46°12' W 060°12'0 0.0 220 / 21031.3 -6.4-7.9
2018-Feb-19 07:00N 46°12' W 060°12'0 0.0 260 / 21030.2 -5.8-7.8
2018-Feb-19 06:00N 46°12' W 060°12'0 0.0 300 / 41029.9 -5.4-8.3
2018-Feb-19 05:00N 46°12' W 060°12'0 0.0 250 / 31028.8 -5.9-8.8
2018-Feb-19 04:00N 46°12' W 060°12'0 0.0 290 / 41027.1 -6.2-8.9
2018-Feb-19 02:00N 46°12' W 060°12'0 0.0 310 / 41024.0 -5.8-8.2
2018-Feb-19 01:00N 46°12' W 060°12'0 0.0 320 / 41023.0 -5.5-8.1
2018-Feb-19 00:00N 46°12' W 060°12'0 0.0 360 / 61022.0 -4.7-7.3
2018-Feb-18 23:00N 46°12' W 060°12'0 0.0 350 / 61020.9 -4.7-6.9
2018-Feb-18 22:00N 46°12' W 060°12'0 0.0 010 / 71019.7 -4.5-6.8
2018-Feb-18 21:00N 46°12' W 060°12'0 0.0 020 / 71019.1 -4.2-7.3
2018-Feb-18 20:00N 46°12' W 060°12'0 0.0 050 / 71018.6 -4.5-7.0
2018-Feb-18 19:00N 46°12' W 060°12'0 0.0 100 / 91018.6 -4.7-6.3
2018-Feb-18 18:00N 46°12' W 060°12'0 0.0 100 / 91019.5 -4.5-6.2
2018-Feb-18 17:00N 46°12' W 060°12'0 0.0 110 / 61020.1 -4.1-7.0
2018-Feb-18 16:00N 46°12' W 060°12'0 0.0 110 / 41021.2 -4.4-7.0
2018-Feb-18 15:00N 46°12' W 060°12'0 0.0 070 / 61021.9 -6.1-8.5
2018-Feb-18 14:00N 46°12' W 060°12'0 0.0 050 / 51023.6 -7.6-10.0
2018-Feb-18 13:00N 46°12' W 060°12'0 0.0 320 / 11025.0 -9.0-10.8
2018-Feb-18 12:00N 46°12' W 060°12'0 0.0 150 / 21024.9 -10.2-12.1
2018-Feb-18 11:00N 46°12' W 060°12'0 0.0 170 / 31025.8 -10.6-12.3
2018-Feb-18 09:00N 46°12' W 060°12'0 0.0 180 / 51027.9 -11.0-13.6
2018-Feb-18 08:00N 46°12' W 060°12'0 0.0 190 / 51027.9 -11.0-13.7
2018-Feb-18 07:00N 46°12' W 060°12'0 0.0 180 / 51028.4 -10.9-14.1
2018-Feb-18 06:00N 46°12' W 060°12'0 0.0 240 / 51029.1 -10.5-15.4
2018-Feb-18 05:00N 46°12' W 060°12'0 0.0 240 / 31029.4 -10.6-16.0
2018-Feb-18 04:00N 46°12' W 060°12'0 0.0 240 / 51029.9 -10.9-15.9
2018-Feb-18 03:00N 46°12' W 060°12'0 0.0 260 / 61029.8 -11.2-16.2
2018-Feb-18 02:00N 46°12' W 060°12'0 0.0 250 / 71029.3 -11.4-15.6
2018-Feb-18 01:00N 46°12' W 060°12'0 0.0 270 / 61028.7 -11.5-15.2
2018-Feb-18 00:00N 46°12' W 060°12'0 0.0 270 / 81028.6 -11.3-15.1
2018-Feb-17 23:00N 46°12' W 060°12'0 0.0 300 / 61028.1 -10.7-15.3
2018-Feb-17 22:00N 46°12' W 060°12'7 7.3 300 / 101027.0 -10.3-15.2
2018-Feb-17 21:00N 46°18' W 060°06'8 8.3 320 / 111025.9 -9.4-14.1
2018-Feb-17 20:00N 46°18' W 059°54'1010.2 320 / 191023.3 -8.8-14.3
2018-Feb-17 19:00N 46°12' W 059°42'7 7.3 330 / 171023.1 -9.1-14.4
2018-Feb-17 18:00N 46°06' W 059°36'1312.7 310 / 261021.5 -8.7-13.5
2018-Feb-17 17:00N 45°54' W 059°42'2512.3 300 / 231021.4 -7.5-14.6
2018-Feb-17 15:00N 45°36' W 060°06'1514.7 300 / 261019.7 -7.6-12.9
2018-Feb-17 14:00N 45°24' W 060°18'1010.3 310 / 271018.3 -7.3-11.2
2018-Feb-17 13:00N 45°18' W 060°30'1514.7 300 / 381016.1 -6.5-10.8
2018-Feb-17 12:00N 45°06' W 060°42'8 8.5 300 / 351014.8 -5.8-7.8
2018-Feb-17 11:00N 45°06' W 060°54'1514.7 310 / 331013.3 -5.9-8.4
2018-Feb-17 10:00N 44°54' W 061°06'9 8.5 310 / 331011.6 -5.2-8.8
2018-Feb-17 09:00N 44°54' W 061°18'1010.4 310 / 291009.5 -4.2-7.4
2018-Feb-17 08:00N 44°48' W 061°30'1010.4 310 / 301007.1 -2.4-5.1
2018-Feb-17 07:00N 44°42' W 061°42'1010.4 310 / 301005.2 -0.7-4.0
2018-Feb-17 06:00N 44°36' W 061°54'1312.8 310 / 271003.7 0.3-2.1
2018-Feb-17 05:00N 44°36' W 062°12'1010.4 320 / 241001.9 0.5-0.7
2018-Feb-17 04:00N 44°30' W 062°24'1312.8 290 / 251000.5 2.2 2.0
2018-Feb-17 03:00N 44°30' W 062°42'1010.5 290 / 19999.8 2.6 2.4
2018-Feb-17 02:00N 44°24' W 062°54'1312.9 290 / 16999.0 2.7 2.6
2018-Feb-17 01:00N 44°24' W 063°12'9 8.6 300 / 15998.7 3.4 3.2
2018-Feb-17 00:00N 44°24' W 063°24'1312.7 280 / 11997.7 3.7 3.6
2018-Feb-16 23:00N 44°36' W 063°30'7 7.4 310 / 7997.6 4.4 4.3
2018-Feb-16 22:00N 44°42' W 063°36'0 0.0 320 / 4997.0 4.4 4.2
2018-Feb-16 21:00N 44°42' W 063°36'0 0.0 320 / 5997.3 4.7 4.6
2018-Feb-16 20:00N 44°42' W 063°36'0 0.0 330 / 3996.7 4.6 4.6
2018-Feb-16 19:00N 44°42' W 063°36'0 0.0 320 / 2996.4 4.9 4.8
2018-Feb-16 18:00N 44°42' W 063°36'0 0.0 130 / 1996.7 4.5 4.4
2018-Feb-16 17:00N 44°42' W 063°36'0 0.0 120 / 2998.3 4.8 4.7
2018-Feb-16 16:00N 44°42' W 063°36'0 0.0 999.8 5.4 5.4
2018-Feb-16 15:00N 44°42' W 063°36'0 0.0 100 / 11001.1 4.7 4.6
2018-Feb-16 14:00N 44°42' W 063°36'0 0.0 100 / 11001.0 3.7 3.6
2018-Feb-16 13:00N 44°42' W 063°36'0 0.0 110 / 31001.4 4.1 4.0
2018-Feb-16 12:00N 44°42' W 063°36'0 0.0 340 / 21001.0 2.7 2.6
2018-Feb-16 11:00N 44°42' W 063°36'0 0.0 320 / 11001.0 5.1 5.0
2018-Feb-16 10:00N 44°42' W 063°36'0 0.0 240 / 41001.8 4.3 4.3
2018-Feb-16 09:00N 44°42' W 063°36'0 0.0 310 / 11001.5 4.2 4.1
2018-Feb-16 08:00N 44°42' W 063°36'0 0.0 320 / 11001.4 3.8 3.7
2018-Feb-16 07:00N 44°42' W 063°36'0 0.0 210 / 21002.0 3.9 3.8
2018-Feb-16 06:00N 44°42' W 063°36'0 0.0 080 / 11001.8 3.3 3.2
2018-Feb-16 05:00N 44°42' W 063°36'0 0.0 110 / 31002.2 2.7 2.7
2018-Feb-16 04:00N 44°42' W 063°36'0 0.0 1003.0 2.9 2.8
2018-Feb-16 03:00N 44°42' W 063°36'0 0.0 1003.3 2.8 2.7
2018-Feb-16 02:00N 44°42' W 063°36'0 0.0 110 / 21004.6 2.7 2.6
2018-Feb-16 01:00N 44°42' W 063°36'0 0.0 190 / 11005.4 2.4 2.3
2018-Feb-16 00:00N 44°42' W 063°36'0 0.0 150 / 11005.6 2.3 2.2
2018-Feb-15 23:00N 44°42' W 063°36'0 0.0 160 / 71006.2 1.5 1.4
2018-Feb-15 22:00N 44°42' W 063°36'0 0.0 1007.0 1.6 1.4
2018-Feb-15 21:00N 44°42' W 063°36'0 0.0 150 / 21008.0 3.1 2.6
2018-Feb-15 20:00N 44°42' W 063°36'0 0.0 180 / 21009.4 5.2 3.1
2018-Feb-15 19:00N 44°42' W 063°36'0 0.0 190 / 41009.7 6.6 2.5
2018-Feb-15 18:00N 44°42' W 063°36'0 0.0 240 / 91010.7 5.8-0.4
2018-Feb-15 17:00N 44°42' W 063°36'0 0.0 220 / 71011.5 5.3-0.9
2018-Feb-15 16:00N 44°42' W 063°36'0 0.0 240 / 21013.0 4.3 0.8
2018-Feb-15 15:00N 44°42' W 063°36'0 0.0 300 / 11013.8 3.2 2.1
2018-Feb-15 14:00N 44°42' W 063°36'0 0.0 340 / 51014.3 2.2 2.0
2018-Feb-15 13:00N 44°42' W 063°36'0 0.0 350 / 21014.4 1.9 1.8
2018-Feb-15 12:00N 44°42' W 063°36'0 0.0 350 / 21013.9 0.8 0.6
2018-Feb-15 11:00N 44°42' W 063°36'0 0.0 330 / 31013.7 -0.0-0.2
2018-Feb-15 10:00N 44°42' W 063°36'0 0.0 280 / 11013.8 0.6 0.4
2018-Feb-15 09:00N 44°42' W 063°36'0 0.0 250 / 41013.4 1.4 1.2
2018-Feb-15 08:00N 44°42' W 063°36'0 0.0 270 / 41013.6 1.9 1.7
2018-Feb-15 07:00N 44°42' W 063°36'0 0.0 300 / 51014.1 2.7 2.5
2018-Feb-15 06:00N 44°42' W 063°36'0 0.0 290 / 41013.7 3.2 3.1
2018-Feb-15 05:00N 44°42' W 063°36'0 0.0 270 / 61013.9 3.5 3.4
2018-Feb-15 04:00N 44°42' W 063°36'0 0.0 240 / 61014.1 3.5 3.4
2018-Feb-15 03:00N 44°42' W 063°36'0 0.0 260 / 61014.5 3.1 3.0
2018-Feb-15 02:00N 44°42' W 063°36'0 0.0 220 / 71015.0 3.0 2.9
2018-Feb-15 01:00N 44°42' W 063°36'0 0.0 210 / 71016.1 3.2 3.1
2018-Feb-15 00:00N 44°42' W 063°36'0 0.0 210 / 41017.0 3.0 2.8
2018-Feb-14 23:00N 44°42' W 063°36'0 0.0 170 / 21017.8 2.7 2.6
2018-Feb-14 22:00N 44°42' W 063°36'0 0.0 210 / 51018.9 2.7 2.5
2018-Feb-14 21:00N 44°42' W 063°36'0 0.0 220 / 91019.6 2.5 1.7
2018-Feb-14 20:00N 44°42' W 063°36'0 0.0 210 / 81020.7 2.5 0.9
2018-Feb-14 19:00N 44°42' W 063°36'0 0.0 220 / 121021.9 1.8-0.0
2018-Feb-14 18:00N 44°42' W 063°36'0 0.0 210 / 91022.9 2.3-1.9
2018-Feb-14 17:00N 44°42' W 063°36'0 0.0 220 / 121024.6 1.1-3.4
2018-Feb-14 16:00N 44°42' W 063°36'0 0.0 220 / 181026.3 0.2-4.5
2018-Feb-14 15:00N 44°42' W 063°36'0 0.0 230 / 171027.6 -0.3-5.0
2018-Feb-14 14:00N 44°42' W 063°36'0 0.0 230 / 141028.6 -1.4-5.8
2018-Feb-14 13:00N 44°42' W 063°36'0 0.0 230 / 151029.3 -2.1-6.2
2018-Feb-14 12:00N 44°42' W 063°36'0 0.0 180 / 21030.5 -3.2-6.1
2018-Feb-14 11:00N 44°42' W 063°36'0 0.0 130 / 21031.2 -5.0-8.1
2018-Feb-14 10:00N 44°42' W 063°36'0 0.0 150 / 21031.6 -5.7-10.7
2018-Feb-14 09:00N 44°42' W 063°36'0 0.0 180 / 11033.2 -5.9-11.2
2018-Feb-14 08:00N 44°42' W 063°36'0 0.0 220 / 21034.3 -6.9-11.7
2018-Feb-14 07:00N 44°42' W 063°36'0 0.0 240 / 21035.3 -7.5-11.7
2018-Feb-14 06:00N 44°42' W 063°36'0 0.0 200 / 21036.1 -7.4-12.7
2018-Feb-14 05:00N 44°42' W 063°36'0 0.0 250 / 61036.9 -7.6-13.3
2018-Feb-14 04:00N 44°42' W 063°36'0 0.0 250 / 61037.2 -7.6-13.8
2018-Feb-14 03:00N 44°42' W 063°36'0 0.0 250 / 81038.4 -7.7-14.5
2018-Feb-14 02:00N 44°42' W 063°36'0 0.0 260 / 71038.7 -7.9-14.8
2018-Feb-14 01:00N 44°42' W 063°36'0 0.0 280 / 81039.3 -7.5-15.3
2018-Feb-14 00:00N 44°42' W 063°36'0 0.0 300 / 91039.6 -7.0-16.4
2018-Feb-13 23:00N 44°42' W 063°36'0 0.0 300 / 101039.3 -6.6-16.7
2018-Feb-13 22:00N 44°42' W 063°36'0 0.0 320 / 81039.1 -6.2-17.2
2018-Feb-13 21:00N 44°42' W 063°36'0 0.0 320 / 101038.8 -5.9-19.1
2018-Feb-13 20:00N 44°42' W 063°36'0 0.0 280 / 141038.8 -5.8-18.0
2018-Feb-13 19:00N 44°42' W 063°36'0 0.0 280 / 131038.3 -6.0-17.0
2018-Feb-13 18:00N 44°42' W 063°36'0 0.0 310 / 131038.3 -6.4-17.1
2018-Feb-13 17:00N 44°42' W 063°36'0 0.0 290 / 201038.7 -7.1-17.2
2018-Feb-13 15:00N 44°42' W 063°36'0 0.0 310 / 191038.8 -7.5-17.8
2018-Feb-13 14:00N 44°42' W 063°36'0 0.0 310 / 181038.7 -7.5-15.9
2018-Feb-13 13:00N 44°42' W 063°36'0 0.0 310 / 201037.6 -7.3-15.7
2018-Feb-13 12:00N 44°42' W 063°36'0 0.0 310 / 181036.5 -7.3-15.1
2018-Feb-13 11:00N 44°42' W 063°36'0 0.0 320 / 181034.8 -6.7-12.8
2018-Feb-13 10:00N 44°42' W 063°36'0 0.0 320 / 181033.2 -5.7-10.2
2018-Feb-13 09:00N 44°42' W 063°36'0 0.0 300 / 201031.9 -4.9-11.1
2018-Feb-13 08:00N 44°42' W 063°36'0 0.0 310 / 161030.9 -4.7-10.9
2018-Feb-13 07:00N 44°42' W 063°36'0 0.0 300 / 211029.9 -4.2-10.3
2018-Feb-13 06:00N 44°42' W 063°36'   300 / 201029.0 -3.7-10.2
Track history (hours):
 
Tides and Currents Weather Stations Pressure Air Temp Water Temp Dewpoint Dewpoint Depression Visibility Wind Speed Wind Dir Waves Ship Positions

Edward Cornwallis

Last reported at 2018-Feb-23 06:00 UTC. Time now 2018-Feb-23 06:44 UTC.
Position N 46°12' W 060°12'.

Length 83 m; draft 6 m.

Type: SAR. MMSI: 316020000.

Wind from 310 at 6 knots

Barometer 1034.3 mb
Air temperature -7.9 ° C
Dewpoint -11.3 ° C

Date/timePositionNaut miles runAvg speedWind from/ knotsBaromVisibWave heightAir tempDewpointWater temp
2018-Feb-23 06:00N 46°12' W 060°12'0 0.0 310 / 61034.3 -7.9-11.3
2018-Feb-23 05:00N 46°12' W 060°12'0 0.0 320 / 41034.2 -8.0-11.6
2018-Feb-23 04:00N 46°12' W 060°12'0 0.0 290 / 31034.1 -8.7-13.2
2018-Feb-23 03:00N 46°12' W 060°12'0 0.0 310 / 51034.1 -8.6-13.5
2018-Feb-23 02:00N 46°12' W 060°12'0 0.0 270 / 51034.3 -8.0-12.5
2018-Feb-23 01:00N 46°12' W 060°12'0 0.0 290 / 61034.2 -8.1-12.8
2018-Feb-23 00:00N 46°12' W 060°12'0 0.0 300 / 141033.5 -8.3-12.9
2018-Feb-22 23:00N 46°12' W 060°12'0 0.0 280 / 91033.7 -8.2-13.3
2018-Feb-22 22:00N 46°12' W 060°12'0 0.0 280 / 61032.9 -7.7-13.5
2018-Feb-22 21:00N 46°12' W 060°12'0 0.0 310 / 61032.5 -7.0-13.4
2018-Feb-22 20:00N 46°12' W 060°12'0 0.0 330 / 101032.1 -6.6-13.4
2018-Feb-22 19:00N 46°12' W 060°12'0 0.0 310 / 111031.2 -5.8-13.8
2018-Feb-22 18:00N 46°12' W 060°12'0 0.0 330 / 91031.4 -5.4-13.6
2018-Feb-22 17:00N 46°12' W 060°12'0 0.0 350 / 81031.2 -6.2-13.5
2018-Feb-22 16:00N 46°12' W 060°12'0 0.0 350 / 101031.2 -6.2-12.4
2018-Feb-22 15:00N 46°12' W 060°12'0 0.0 340 / 101031.2 -6.9-13.0
2018-Feb-22 13:00N 46°12' W 060°12'0 0.0 340 / 101030.2 -6.9-12.3
2018-Feb-22 12:00N 46°12' W 060°12'0 0.0 340 / 111028.6 -6.4-12.3
2018-Feb-22 10:00N 46°12' W 060°12'0 0.0 310 / 161025.2 -3.6-11.0
2018-Feb-22 09:00N 46°12' W 060°12'0 0.0 310 / 91023.5 -2.4-10.1
2018-Feb-22 08:00N 46°12' W 060°12'0 0.0 310 / 131020.7 -0.9-8.0
2018-Feb-22 07:00N 46°12' W 060°12'0 0.0 320 / 111019.0 1.7-2.6
2018-Feb-22 06:00N 46°12' W 060°12'0 0.0 300 / 191016.7 3.3-2.3
2018-Feb-22 05:00N 46°12' W 060°12'0 0.0 300 / 181015.6 5.4-1.0
2018-Feb-22 03:00N 46°12' W 060°12'0 0.0 270 / 101012.3 9.5 7.2
2018-Feb-22 02:00N 46°12' W 060°12'0 0.0 280 / 61010.8 8.9 8.8
2018-Feb-22 01:00N 46°12' W 060°12'0 0.0 180 / 71010.1 5.2 5.1
2018-Feb-22 00:00N 46°12' W 060°12'0 0.0 180 / 81010.2 4.3 4.2
2018-Feb-21 23:00N 46°12' W 060°12'0 0.0 190 / 101010.8 4.5 4.4
2018-Feb-21 22:00N 46°12' W 060°12'0 0.0 200 / 91011.5 4.3 4.3
2018-Feb-21 21:00N 46°12' W 060°12'0 0.0 200 / 91012.3 3.7 3.7
2018-Feb-21 20:00N 46°12' W 060°12'0 0.0 200 / 121013.6 2.9 2.9
2018-Feb-21 19:00N 46°12' W 060°12'0 0.0 210 / 111015.2 2.4 2.3
2018-Feb-21 18:00N 46°12' W 060°12'0 0.0 200 / 171016.6 1.5 1.4
2018-Feb-21 17:00N 46°12' W 060°12'0 0.0 200 / 161018.9 0.6 0.5
2018-Feb-21 16:00N 46°12' W 060°12'0 0.0 190 / 171021.5 0.2-0.0
2018-Feb-21 15:00N 46°12' W 060°12'0 0.0 190 / 101023.2 -0.2-0.4
2018-Feb-21 14:00N 46°12' W 060°12'0 0.0 200 / 21025.5 -1.8-2.0
2018-Feb-21 13:00N 46°12' W 060°12'0 0.0 240 / 31025.9 -2.2-3.1
2018-Feb-21 12:00N 46°12' W 060°12'0 0.0 090 / 21026.8 -2.2-3.1
2018-Feb-21 11:00N 46°12' W 060°12'0 0.0 1027.4 -2.6-3.6
2018-Feb-21 10:00N 46°12' W 060°12'0 0.0 010 / 21028.6 -2.6-3.7
2018-Feb-21 09:00N 46°12' W 060°12'0 0.0 040 / 51029.8 -2.9-3.9
2018-Feb-21 08:00N 46°12' W 060°12'0 0.0 030 / 51029.5 -2.9-4.0
2018-Feb-21 07:00N 46°12' W 060°12'0 0.0 030 / 71030.0 -3.0-4.0
2018-Feb-21 06:00N 46°12' W 060°12'0 0.0 030 / 71030.3 -2.9-3.7
2018-Feb-21 05:00N 46°12' W 060°12'0 0.0 020 / 101030.5 -2.9-3.8
2018-Feb-21 04:00N 46°12' W 060°12'0 0.0 010 / 61030.9 -2.7-3.0
2018-Feb-21 03:00N 46°12' W 060°12'0 0.0 020 / 91031.0 -2.7-2.9
2018-Feb-21 02:00N 46°12' W 060°12'0 0.0 020 / 111030.5 -2.8-3.0
2018-Feb-21 01:00N 46°12' W 060°12'0 0.0 030 / 91031.2 -2.6-2.8
2018-Feb-21 00:00N 46°12' W 060°12'0 0.0 010 / 131030.9 -2.4-2.6
2018-Feb-20 23:00N 46°12' W 060°12'0 0.0 020 / 111030.3 -1.8-2.0
2018-Feb-20 22:00N 46°12' W 060°12'0 0.0 020 / 121029.7 -0.9-1.0
2018-Feb-20 21:00N 46°12' W 060°12'0 0.0 030 / 51028.4 -0.5-0.7
2018-Feb-20 20:00N 46°12' W 060°12'0 0.0 030 / 101028.2 -0.1-0.3
2018-Feb-20 19:00N 46°12' W 060°12'0 0.0 050 / 71027.0 0.4 0.2
2018-Feb-20 18:00N 46°12' W 060°12'0 0.0 040 / 101026.7 1.2 0.8
2018-Feb-20 17:00N 46°12' W 060°12'0 0.0 040 / 61026.2 3.4 2.8
2018-Feb-20 16:00N 46°12' W 060°12'0 0.0 250 / 11025.8 2.4 2.2
2018-Feb-20 15:00N 46°12' W 060°12'0 0.0 190 / 11026.2 2.0 1.8
2018-Feb-20 14:00N 46°12' W 060°12'0 0.0 230 / 21026.8 1.4 1.3
2018-Feb-20 13:00N 46°12' W 060°12'0 0.0 1026.7 1.4 1.2
2018-Feb-20 12:00N 46°12' W 060°12'0 0.0 180 / 31026.8 0.9 0.8
2018-Feb-20 11:00N 46°12' W 060°12'0 0.0 180 / 31026.8 0.3 0.2
2018-Feb-20 10:00N 46°12' W 060°12'0 0.0 190 / 11027.3 0.4 0.3
2018-Feb-20 09:00N 46°12' W 060°12'0 0.0 150 / 21027.6 0.1-0.0
2018-Feb-20 08:00N 46°12' W 060°12'0 0.0 150 / 21028.2 -0.9-1.0
2018-Feb-20 07:00N 46°12' W 060°12'0 0.0 160 / 51029.0 -1.4-1.5
2018-Feb-20 06:00N 46°12' W 060°12'0 0.0 180 / 91029.6 -0.3-1.9
2018-Feb-20 05:00N 46°12' W 060°12'0 0.0 200 / 51030.0 -0.3-2.1
2018-Feb-20 04:00N 46°12' W 060°12'0 0.0 210 / 61030.8 -0.9-2.6
2018-Feb-20 03:00N 46°12' W 060°12'0 0.0 190 / 91031.0 -1.9-3.1
2018-Feb-20 02:00N 46°12' W 060°12'0 0.0 190 / 111031.2 -1.8-3.0
2018-Feb-20 01:00N 46°12' W 060°12'0 0.0 200 / 131031.8 -1.4-2.9
2018-Feb-20 00:00N 46°12' W 060°12'0 0.0 210 / 141032.1 -1.0-3.3
2018-Feb-19 23:00N 46°12' W 060°12'0 0.0 200 / 141032.7 -0.8-4.6
2018-Feb-19 22:00N 46°12' W 060°12'0 0.0 190 / 151032.3 -0.2-6.0
2018-Feb-19 21:00N 46°12' W 060°12'0 0.0 200 / 141032.9 1.6-6.2
2018-Feb-19 20:00N 46°12' W 060°12'0 0.0 200 / 121033.6 2.1-8.2
2018-Feb-19 19:00N 46°12' W 060°12'0 0.0 200 / 91033.9 2.4-6.9
2018-Feb-19 18:00N 46°12' W 060°12'0 0.0 220 / 81034.5 1.7-8.1
2018-Feb-19 17:00N 46°12' W 060°12'0 0.0 230 / 81035.8 0.9-8.3
2018-Feb-19 16:00N 46°12' W 060°12'0 0.0 250 / 71036.3 0.5-7.9
2018-Feb-19 15:00N 46°12' W 060°12'0 0.0 180 / 51036.6 -1.4-5.6
2018-Feb-19 14:00N 46°12' W 060°12'0 0.0 190 / 41036.0 -2.9-5.7
2018-Feb-19 13:00N 46°12' W 060°12'0 0.0 200 / 41035.5 -5.2-6.9
2018-Feb-19 12:00N 46°12' W 060°12'0 0.0 200 / 31034.5 -6.1-7.0
2018-Feb-19 11:00N 46°12' W 060°12'0 0.0 280 / 41034.2 -6.8-7.3
2018-Feb-19 10:00N 46°12' W 060°12'0 0.0 270 / 41032.7 -6.7-7.6
2018-Feb-19 09:00N 46°12' W 060°12'0 0.0 240 / 31032.7 -7.3-7.8
2018-Feb-19 08:00N 46°12' W 060°12'0 0.0 220 / 21031.3 -6.4-7.9
2018-Feb-19 07:00N 46°12' W 060°12'0 0.0 260 / 21030.2 -5.8-7.8
2018-Feb-19 06:00N 46°12' W 060°12'0 0.0 300 / 41029.9 -5.4-8.3
2018-Feb-19 05:00N 46°12' W 060°12'0 0.0 250 / 31028.8 -5.9-8.8
2018-Feb-19 04:00N 46°12' W 060°12'0 0.0 290 / 41027.1 -6.2-8.9
2018-Feb-19 02:00N 46°12' W 060°12'0 0.0 310 / 41024.0 -5.8-8.2
2018-Feb-19 01:00N 46°12' W 060°12'0 0.0 320 / 41023.0 -5.5-8.1
2018-Feb-19 00:00N 46°12' W 060°12'0 0.0 360 / 61022.0 -4.7-7.3
2018-Feb-18 23:00N 46°12' W 060°12'0 0.0 350 / 61020.9 -4.7-6.9
2018-Feb-18 22:00N 46°12' W 060°12'0 0.0 010 / 71019.7 -4.5-6.8
2018-Feb-18 21:00N 46°12' W 060°12'0 0.0 020 / 71019.1 -4.2-7.3
2018-Feb-18 20:00N 46°12' W 060°12'0 0.0 050 / 71018.6 -4.5-7.0
2018-Feb-18 19:00N 46°12' W 060°12'0 0.0 100 / 91018.6 -4.7-6.3
2018-Feb-18 18:00N 46°12' W 060°12'0 0.0 100 / 91019.5 -4.5-6.2
2018-Feb-18 17:00N 46°12' W 060°12'0 0.0 110 / 61020.1 -4.1-7.0
2018-Feb-18 16:00N 46°12' W 060°12'0 0.0 110 / 41021.2 -4.4-7.0
2018-Feb-18 15:00N 46°12' W 060°12'0 0.0 070 / 61021.9 -6.1-8.5
2018-Feb-18 14:00N 46°12' W 060°12'0 0.0 050 / 51023.6 -7.6-10.0
2018-Feb-18 13:00N 46°12' W 060°12'0 0.0 320 / 11025.0 -9.0-10.8
2018-Feb-18 12:00N 46°12' W 060°12'0 0.0 150 / 21024.9 -10.2-12.1
2018-Feb-18 11:00N 46°12' W 060°12'0 0.0 170 / 31025.8 -10.6-12.3
2018-Feb-18 09:00N 46°12' W 060°12'0 0.0 180 / 51027.9 -11.0-13.6
2018-Feb-18 08:00N 46°12' W 060°12'0 0.0 190 / 51027.9 -11.0-13.7
2018-Feb-18 07:00N 46°12' W 060°12'0 0.0 180 / 51028.4 -10.9-14.1
2018-Feb-18 06:00N 46°12' W 060°12'0 0.0 240 / 51029.1 -10.5-15.4
2018-Feb-18 05:00N 46°12' W 060°12'0 0.0 240 / 31029.4 -10.6-16.0
2018-Feb-18 04:00N 46°12' W 060°12'0 0.0 240 / 51029.9 -10.9-15.9
2018-Feb-18 03:00N 46°12' W 060°12'0 0.0 260 / 61029.8 -11.2-16.2
2018-Feb-18 02:00N 46°12' W 060°12'0 0.0 250 / 71029.3 -11.4-15.6
2018-Feb-18 01:00N 46°12' W 060°12'0 0.0 270 / 61028.7 -11.5-15.2
2018-Feb-18 00:00N 46°12' W 060°12'0 0.0 270 / 81028.6 -11.3-15.1
2018-Feb-17 23:00N 46°12' W 060°12'0 0.0 300 / 61028.1 -10.7-15.3
2018-Feb-17 22:00N 46°12' W 060°12'7 7.3 300 / 101027.0 -10.3-15.2
2018-Feb-17 21:00N 46°18' W 060°06'8 8.3 320 / 111025.9 -9.4-14.1
2018-Feb-17 20:00N 46°18' W 059°54'1010.2 320 / 191023.3 -8.8-14.3
2018-Feb-17 19:00N 46°12' W 059°42'7 7.3 330 / 171023.1 -9.1-14.4
2018-Feb-17 18:00N 46°06' W 059°36'1312.7 310 / 261021.5 -8.7-13.5
2018-Feb-17 17:00N 45°54' W 059°42'2512.3 300 / 231021.4 -7.5-14.6
2018-Feb-17 15:00N 45°36' W 060°06'1514.7 300 / 261019.7 -7.6-12.9
2018-Feb-17 14:00N 45°24' W 060°18'1010.3 310 / 271018.3 -7.3-11.2
2018-Feb-17 13:00N 45°18' W 060°30'1514.7 300 / 381016.1 -6.5-10.8
2018-Feb-17 12:00N 45°06' W 060°42'8 8.5 300 / 351014.8 -5.8-7.8
2018-Feb-17 11:00N 45°06' W 060°54'1514.7 310 / 331013.3 -5.9-8.4
2018-Feb-17 10:00N 44°54' W 061°06'9 8.5 310 / 331011.6 -5.2-8.8
2018-Feb-17 09:00N 44°54' W 061°18'1010.4 310 / 291009.5 -4.2-7.4
2018-Feb-17 08:00N 44°48' W 061°30'1010.4 310 / 301007.1 -2.4-5.1
2018-Feb-17 07:00N 44°42' W 061°42'1010.4 310 / 301005.2 -0.7-4.0
2018-Feb-17 06:00N 44°36' W 061°54'1312.8 310 / 271003.7 0.3-2.1
2018-Feb-17 05:00N 44°36' W 062°12'1010.4 320 / 241001.9 0.5-0.7
2018-Feb-17 04:00N 44°30' W 062°24'1312.8 290 / 251000.5 2.2 2.0
2018-Feb-17 03:00N 44°30' W 062°42'1010.5 290 / 19999.8 2.6 2.4
2018-Feb-17 02:00N 44°24' W 062°54'1312.9 290 / 16999.0 2.7 2.6
2018-Feb-17 01:00N 44°24' W 063°12'9 8.6 300 / 15998.7 3.4 3.2
2018-Feb-17 00:00N 44°24' W 063°24'1312.7 280 / 11997.7 3.7 3.6
2018-Feb-16 23:00N 44°36' W 063°30'7 7.4 310 / 7997.6 4.4 4.3
2018-Feb-16 22:00N 44°42' W 063°36'0 0.0 320 / 4997.0 4.4 4.2
2018-Feb-16 21:00N 44°42' W 063°36'0 0.0 320 / 5997.3 4.7 4.6
2018-Feb-16 20:00N 44°42' W 063°36'0 0.0 330 / 3996.7 4.6 4.6
2018-Feb-16 19:00N 44°42' W 063°36'0 0.0 320 / 2996.4 4.9 4.8
2018-Feb-16 18:00N 44°42' W 063°36'0 0.0 130 / 1996.7 4.5 4.4
2018-Feb-16 17:00N 44°42' W 063°36'0 0.0 120 / 2998.3 4.8 4.7
2018-Feb-16 16:00N 44°42' W 063°36'0 0.0 999.8 5.4 5.4
2018-Feb-16 15:00N 44°42' W 063°36'0 0.0 100 / 11001.1 4.7 4.6
2018-Feb-16 14:00N 44°42' W 063°36'0 0.0 100 / 11001.0 3.7 3.6
2018-Feb-16 13:00N 44°42' W 063°36'0 0.0 110 / 31001.4 4.1 4.0
2018-Feb-16 12:00N 44°42' W 063°36'0 0.0 340 / 21001.0 2.7 2.6
2018-Feb-16 11:00N 44°42' W 063°36'0 0.0 320 / 11001.0 5.1 5.0
2018-Feb-16 10:00N 44°42' W 063°36'0 0.0 240 / 41001.8 4.3 4.3
2018-Feb-16 09:00N 44°42' W 063°36'0 0.0 310 / 11001.5 4.2 4.1
2018-Feb-16 08:00N 44°42' W 063°36'0 0.0 320 / 11001.4 3.8 3.7
2018-Feb-16 07:00N 44°42' W 063°36'0 0.0 210 / 21002.0 3.9 3.8
2018-Feb-16 06:00N 44°42' W 063°36'0 0.0 080 / 11001.8 3.3 3.2
2018-Feb-16 05:00N 44°42' W 063°36'0 0.0 110 / 31002.2 2.7 2.7
2018-Feb-16 04:00N 44°42' W 063°36'0 0.0 1003.0 2.9 2.8
2018-Feb-16 03:00N 44°42' W 063°36'0 0.0 1003.3 2.8 2.7
2018-Feb-16 02:00N 44°42' W 063°36'0 0.0 110 / 21004.6 2.7 2.6
2018-Feb-16 01:00N 44°42' W 063°36'0 0.0 190 / 11005.4 2.4 2.3
2018-Feb-16 00:00N 44°42' W 063°36'0 0.0 150 / 11005.6 2.3 2.2
2018-Feb-15 23:00N 44°42' W 063°36'0 0.0 160 / 71006.2 1.5 1.4
2018-Feb-15 22:00N 44°42' W 063°36'0 0.0 1007.0 1.6 1.4
2018-Feb-15 21:00N 44°42' W 063°36'0 0.0 150 / 21008.0 3.1 2.6
2018-Feb-15 20:00N 44°42' W 063°36'0 0.0 180 / 21009.4 5.2 3.1
2018-Feb-15 19:00N 44°42' W 063°36'0 0.0 190 / 41009.7 6.6 2.5
2018-Feb-15 18:00N 44°42' W 063°36'0 0.0 240 / 91010.7 5.8-0.4
2018-Feb-15 17:00N 44°42' W 063°36'0 0.0 220 / 71011.5 5.3-0.9
2018-Feb-15 16:00N 44°42' W 063°36'0 0.0 240 / 21013.0 4.3 0.8
2018-Feb-15 15:00N 44°42' W 063°36'0 0.0 300 / 11013.8 3.2 2.1
2018-Feb-15 14:00N 44°42' W 063°36'0 0.0 340 / 51014.3 2.2 2.0
2018-Feb-15 13:00N 44°42' W 063°36'0 0.0 350 / 21014.4 1.9 1.8
2018-Feb-15 12:00N 44°42' W 063°36'0 0.0 350 / 21013.9 0.8 0.6
2018-Feb-15 11:00N 44°42' W 063°36'0 0.0 330 / 31013.7 -0.0-0.2
2018-Feb-15 10:00N 44°42' W 063°36'0 0.0 280 / 11013.8 0.6 0.4
2018-Feb-15 09:00N 44°42' W 063°36'0 0.0 250 / 41013.4 1.4 1.2
2018-Feb-15 08:00N 44°42' W 063°36'0 0.0 270 / 41013.6 1.9 1.7
2018-Feb-15 07:00N 44°42' W 063°36'0 0.0 300 / 51014.1 2.7 2.5
2018-Feb-15 06:00N 44°42' W 063°36'0 0.0 290 / 41013.7 3.2 3.1
2018-Feb-15 05:00N 44°42' W 063°36'0 0.0 270 / 61013.9 3.5 3.4
2018-Feb-15 04:00N 44°42' W 063°36'0 0.0 240 / 61014.1 3.5 3.4
2018-Feb-15 03:00N 44°42' W 063°36'0 0.0 260 / 61014.5 3.1 3.0
2018-Feb-15 02:00N 44°42' W 063°36'0 0.0 220 / 71015.0 3.0 2.9
2018-Feb-15 01:00N 44°42' W 063°36'0 0.0 210 / 71016.1 3.2 3.1
2018-Feb-15 00:00N 44°42' W 063°36'0 0.0 210 / 41017.0 3.0 2.8
2018-Feb-14 23:00N 44°42' W 063°36'0 0.0 170 / 21017.8 2.7 2.6
2018-Feb-14 22:00N 44°42' W 063°36'0 0.0 210 / 51018.9 2.7 2.5
2018-Feb-14 21:00N 44°42' W 063°36'0 0.0 220 / 91019.6 2.5 1.7
2018-Feb-14 20:00N 44°42' W 063°36'0 0.0 210 / 81020.7 2.5 0.9
2018-Feb-14 19:00N 44°42' W 063°36'0 0.0 220 / 121021.9 1.8-0.0
2018-Feb-14 18:00N 44°42' W 063°36'0 0.0 210 / 91022.9 2.3-1.9
2018-Feb-14 17:00N 44°42' W 063°36'0 0.0 220 / 121024.6 1.1-3.4
2018-Feb-14 16:00N 44°42' W 063°36'0 0.0 220 / 181026.3 0.2-4.5
2018-Feb-14 15:00N 44°42' W 063°36'0 0.0 230 / 171027.6 -0.3-5.0
2018-Feb-14 14:00N 44°42' W 063°36'0 0.0 230 / 141028.6 -1.4-5.8
2018-Feb-14 13:00N 44°42' W 063°36'0 0.0 230 / 151029.3 -2.1-6.2
2018-Feb-14 12:00N 44°42' W 063°36'0 0.0 180 / 21030.5 -3.2-6.1
2018-Feb-14 11:00N 44°42' W 063°36'0 0.0 130 / 21031.2 -5.0-8.1
2018-Feb-14 10:00N 44°42' W 063°36'0 0.0 150 / 21031.6 -5.7-10.7
2018-Feb-14 09:00N 44°42' W 063°36'0 0.0 180 / 11033.2 -5.9-11.2
2018-Feb-14 08:00N 44°42' W 063°36'0 0.0 220 / 21034.3 -6.9-11.7
2018-Feb-14 07:00N 44°42' W 063°36'0 0.0 240 / 21035.3 -7.5-11.7
2018-Feb-14 06:00N 44°42' W 063°36'0 0.0 200 / 21036.1 -7.4-12.7
2018-Feb-14 05:00N 44°42' W 063°36'0 0.0 250 / 61036.9 -7.6-13.3
2018-Feb-14 04:00N 44°42' W 063°36'0 0.0 250 / 61037.2 -7.6-13.8
2018-Feb-14 03:00N 44°42' W 063°36'0 0.0 250 / 81038.4 -7.7-14.5
2018-Feb-14 02:00N 44°42' W 063°36'0 0.0 260 / 71038.7 -7.9-14.8
2018-Feb-14 01:00N 44°42' W 063°36'0 0.0 280 / 81039.3 -7.5-15.3
2018-Feb-14 00:00N 44°42' W 063°36'0 0.0 300 / 91039.6 -7.0-16.4
2018-Feb-13 23:00N 44°42' W 063°36'0 0.0 300 / 101039.3 -6.6-16.7
2018-Feb-13 22:00N 44°42' W 063°36'0 0.0 320 / 81039.1 -6.2-17.2
2018-Feb-13 21:00N 44°42' W 063°36'0 0.0 320 / 101038.8 -5.9-19.1
2018-Feb-13 20:00N 44°42' W 063°36'0 0.0 280 / 141038.8 -5.8-18.0
2018-Feb-13 19:00N 44°42' W 063°36'0 0.0 280 / 131038.3 -6.0-17.0
2018-Feb-13 18:00N 44°42' W 063°36'0 0.0 310 / 131038.3 -6.4-17.1
2018-Feb-13 17:00N 44°42' W 063°36'0 0.0 290 / 201038.7 -7.1-17.2
2018-Feb-13 15:00N 44°42' W 063°36'0 0.0 310 / 191038.8 -7.5-17.8
2018-Feb-13 14:00N 44°42' W 063°36'0 0.0 310 / 181038.7 -7.5-15.9
2018-Feb-13 13:00N 44°42' W 063°36'0 0.0 310 / 201037.6 -7.3-15.7
2018-Feb-13 12:00N 44°42' W 063°36'0 0.0 310 / 181036.5 -7.3-15.1
2018-Feb-13 11:00N 44°42' W 063°36'0 0.0 320 / 181034.8 -6.7-12.8
2018-Feb-13 10:00N 44°42' W 063°36'0 0.0 320 / 181033.2 -5.7-10.2
2018-Feb-13 09:00N 44°42' W 063°36'0 0.0 300 / 201031.9 -4.9-11.1
2018-Feb-13 08:00N 44°42' W 063°36'0 0.0 310 / 161030.9 -4.7-10.9
2018-Feb-13 07:00N 44°42' W 063°36'0 0.0 300 / 211029.9 -4.2-10.3
2018-Feb-13 06:00N 44°42' W 063°36'   300 / 201029.0 -3.7-10.2

Dump ship's entire track history